Greybull, Wyoming
Current Conditions -  °F | °C
As of 7:53 PM on Wednesday 22 Oct 2014 (Local Time) from KGEY Reporting Station
Clear Clear  
Wind Chill: 50°   Ceiling: Unl
Heat Index: 50°   Visibility: 10mi
Dew Point: 22°   Wind: 3mph
Humidity: 33%   Direction: NA
Pressure: 30.03"   Gusts: NA
Location:  44.49°N, 108.06°W
Report Text: KGEY 230153Z AUTO VRB03KT 10SM CLR 10/M06 A3003 RMK AO2 SLP183 T01001056
Loading
Personal Weather Stations






























Interactive Weather Map
Tropical Storm Tracking
New forecast layout! Learn more

10-Day Weather Forecast

Advertisements
Track Severe Weather on mobile